createdAt,value
2023-03-21T00:00:13.111Z,9.16
2023-03-21T00:01:12.116Z,9.11
2023-03-21T00:02:12.136Z,9.16
2023-03-21T00:03:12.066Z,9.21
2023-03-21T00:04:12.228Z,9.21
2023-03-21T00:05:15.857Z,9.21
2023-03-21T00:06:12.023Z,9.18
2023-03-21T00:07:12.014Z,9.18
2023-03-21T00:08:11.995Z,9.18
2023-03-21T00:09:11.972Z,9.19
2023-03-21T00:10:18.073Z,9.18
2023-03-21T00:11:12.947Z,9.19
2023-03-21T00:12:11.944Z,9.22
2023-03-21T00:13:11.940Z,9.21
2023-03-21T00:14:11.938Z,9.14
2023-03-21T00:15:11.877Z,9.06
2023-03-21T00:16:16.336Z,9.04
2023-03-21T00:17:12.857Z,9.00
2023-03-21T00:18:11.912Z,8.95
2023-03-21T00:19:11.863Z,8.89
2023-03-21T00:20:11.850Z,8.89
2023-03-21T00:22:12.826Z,8.85
2023-03-21T00:23:11.776Z,8.82
2023-03-21T00:24:11.825Z,8.78
2023-03-21T00:25:11.761Z,8.69
2023-03-21T00:26:11.765Z,8.63
2023-03-21T00:27:38.399Z,8.60
2023-03-21T00:28:12.730Z,8.52
2023-03-21T00:29:11.731Z,8.53
2023-03-21T00:30:11.709Z,8.51
2023-03-21T00:31:11.697Z,8.52
2023-03-21T00:32:11.702Z,8.55
2023-03-21T00:33:22.054Z,8.58
2023-03-21T00:35:47.955Z,8.64
2023-03-21T00:36:13.121Z,8.70
2023-03-21T00:37:11.631Z,8.67
2023-03-21T00:38:11.606Z,8.63
2023-03-21T00:39:11.575Z,8.60
2023-03-21T00:40:23.138Z,8.60
2023-03-21T00:41:21.346Z,8.61
2023-03-21T00:42:12.575Z,8.63
2023-03-21T00:43:11.508Z,8.66
2023-03-21T00:44:11.655Z,8.66
2023-03-21T00:45:11.501Z,8.66
2023-03-21T00:46:11.549Z,8.63
2023-03-21T00:47:11.487Z,8.60
2023-03-21T00:48:11.532Z,8.61
2023-03-21T00:49:11.492Z,8.61
2023-03-21T00:50:11.442Z,8.60
2023-03-21T00:51:11.417Z,8.63
2023-03-21T00:52:27.536Z,8.58
2023-03-21T00:53:12.390Z,8.55
2023-03-21T00:54:11.392Z,8.55
2023-03-21T00:55:11.376Z,8.55
2023-03-21T00:56:11.377Z,8.52
2023-03-21T00:57:11.339Z,8.52
2023-03-21T00:58:11.357Z,8.49
2023-03-21T00:59:11.347Z,8.45
2023-03-21T01:00:11.329Z,8.48
2023-03-21T01:01:11.347Z,8.51
2023-03-21T01:02:11.335Z,8.56
2023-03-21T01:03:23.783Z,8.58
2023-03-21T01:04:12.296Z,8.64
2023-03-21T01:05:11.241Z,8.67
2023-03-21T01:06:11.250Z,8.73
2023-03-21T01:07:11.214Z,8.78
2023-03-21T01:08:25.062Z,8.84
2023-03-21T01:09:12.184Z,8.84
2023-03-21T01:10:11.205Z,8.84
2023-03-21T01:11:11.151Z,8.82
2023-03-21T01:12:11.181Z,8.82
2023-03-21T01:13:11.119Z,8.79
2023-03-21T01:14:22.005Z,8.81
2023-03-21T01:15:12.097Z,8.79
2023-03-21T01:16:11.124Z,8.84
2023-03-21T01:17:11.079Z,8.82
2023-03-21T01:18:11.126Z,8.84
2023-03-21T01:19:22.041Z,8.78
2023-03-21T01:20:12.071Z,8.71
2023-03-21T01:21:11.028Z,8.63
2023-03-21T01:22:11.027Z,8.53
2023-03-21T01:23:11.002Z,8.44
2023-03-21T01:24:11.043Z,8.36
2023-03-21T01:25:21.960Z,8.30
2023-03-21T01:26:11.993Z,8.23
2023-03-21T01:27:10.956Z,8.20
2023-03-21T01:28:10.962Z,8.18
2023-03-21T01:29:10.942Z,8.19
2023-03-21T01:30:19.090Z,8.19
2023-03-21T01:31:11.922Z,8.20
2023-03-21T01:32:10.937Z,8.23
2023-03-21T01:33:10.868Z,8.26
2023-03-21T01:34:10.897Z,8.27
2023-03-21T01:35:10.863Z,8.27
2023-03-21T01:36:13.479Z,8.30
2023-03-21T01:37:10.840Z,8.34
2023-03-21T01:38:10.823Z,8.38
2023-03-21T01:39:10.802Z,8.42
2023-03-21T01:40:10.829Z,8.48
2023-03-21T01:41:19.259Z,8.53
2023-03-21T01:42:11.865Z,8.56
2023-03-21T01:43:10.738Z,8.61
2023-03-21T01:44:10.742Z,8.64
2023-03-21T01:45:10.722Z,8.61
2023-03-21T01:46:10.798Z,8.58
2023-03-21T01:47:12.487Z,8.60
2023-03-21T01:48:10.714Z,8.53
2023-03-21T01:49:10.661Z,8.44
2023-03-21T01:50:10.664Z,8.41
2023-03-21T01:51:10.630Z,8.36
2023-03-21T01:52:15.104Z,8.33
2023-03-21T01:53:11.619Z,8.33
2023-03-21T01:54:10.637Z,8.33
2023-03-21T01:55:10.589Z,8.33
2023-03-21T01:56:10.608Z,8.31
2023-03-21T01:57:10.551Z,8.31
2023-03-21T01:58:10.636Z,8.33
2023-03-21T01:59:10.526Z,8.31
2023-03-21T02:00:10.535Z,8.28
2023-03-21T02:01:10.641Z,8.28
2023-03-21T02:02:10.514Z,8.28
2023-03-21T02:03:15.284Z,8.34
2023-03-21T02:04:11.564Z,8.36
2023-03-21T02:05:10.472Z,8.37
2023-03-21T02:06:10.452Z,8.37
2023-03-21T02:07:10.436Z,8.41
2023-03-21T02:08:10.447Z,8.38
2023-03-21T02:09:10.409Z,8.41
2023-03-21T02:10:10.440Z,8.42
2023-03-21T02:11:10.383Z,8.48
2023-03-21T02:12:10.448Z,8.55
2023-03-21T02:13:10.346Z,8.58
2023-03-21T02:14:13.279Z,8.60
2023-03-21T02:15:10.357Z,8.66
2023-03-21T02:16:10.363Z,8.69
2023-03-21T02:17:10.325Z,8.64
2023-03-21T02:18:10.331Z,8.61
2023-03-21T02:19:10.792Z,8.51
2023-03-21T02:20:10.296Z,8.38
2023-03-21T02:21:10.247Z,8.30
2023-03-21T02:22:10.275Z,8.20
2023-03-21T02:23:10.229Z,8.13
2023-03-21T02:24:10.282Z,8.08
2023-03-21T02:25:21.345Z,8.08
2023-03-21T02:26:11.202Z,8.09
2023-03-21T02:27:10.179Z,8.10
2023-03-21T02:28:10.183Z,8.12
2023-03-21T02:29:10.154Z,8.15
2023-03-21T02:30:14.913Z,8.16
2023-03-21T02:31:11.187Z,8.20
2023-03-21T02:32:20.462Z,8.19
2023-03-21T02:33:11.111Z,8.19
2023-03-21T02:34:10.134Z,8.15
2023-03-21T02:35:10.079Z,8.09
2023-03-21T02:36:14.194Z,8.05
2023-03-21T02:37:10.086Z,8.00
2023-03-21T02:38:10.059Z,8.03
2023-03-21T02:39:10.035Z,7.97
2023-03-21T02:40:10.046Z,7.91
2023-03-21T02:41:18.020Z,7.83
2023-03-21T02:42:11.048Z,7.80
2023-03-21T02:43:22.204Z,7.79
2023-03-21T02:44:10.999Z,7.77
2023-03-21T02:45:09.965Z,7.76
2023-03-21T02:46:10.030Z,7.80
2023-03-21T02:47:10.117Z,7.83
2023-03-21T02:48:14.561Z,7.87
2023-03-21T02:49:10.949Z,7.87
2023-03-21T02:50:09.901Z,7.87
2023-03-21T02:51:09.891Z,7.91
2023-03-21T02:52:17.001Z,7.87
2023-03-21T02:53:10.886Z,7.83
2023-03-21T02:54:28.127Z,7.87
2023-03-21T02:55:10.823Z,7.87
2023-03-21T02:56:09.832Z,7.82
2023-03-21T02:57:09.812Z,7.77
2023-03-21T02:58:13.299Z,7.70
2023-03-21T02:59:09.808Z,7.69
2023-03-21T03:00:16.254Z,7.72
2023-03-21T03:01:10.851Z,7.76
2023-03-21T03:02:09.750Z,7.80
2023-03-21T03:03:12.722Z,7.85
2023-03-21T03:04:10.804Z,7.87
2023-03-21T03:05:20.440Z,7.91
2023-03-21T03:06:10.737Z,7.91
2023-03-21T03:07:09.706Z,7.93
2023-03-21T03:08:09.680Z,7.91
2023-03-21T03:09:09.655Z,7.93
2023-03-21T03:10:09.686Z,7.88
2023-03-21T03:11:09.632Z,7.85
2023-03-21T03:12:09.657Z,7.75
2023-03-21T03:13:09.636Z,7.72
2023-03-21T03:14:32.232Z,7.60
2023-03-21T03:15:10.585Z,7.54
2023-03-21T03:16:09.655Z,7.50
2023-03-21T03:17:09.596Z,7.45
2023-03-21T03:18:09.559Z,7.43
2023-03-21T03:19:09.540Z,7.47
2023-03-21T03:20:16.271Z,7.45
2023-03-21T03:21:10.503Z,7.45
2023-03-21T03:22:09.522Z,7.42
2023-03-21T03:23:09.500Z,7.39
2023-03-21T03:24:09.488Z,7.36
2023-03-21T03:25:19.734Z,7.36
2023-03-21T03:26:10.477Z,7.35
2023-03-21T03:27:09.432Z,7.35
2023-03-21T03:28:09.433Z,7.33
2023-03-21T03:29:09.406Z,7.35
2023-03-21T03:30:09.434Z,7.42
2023-03-21T03:31:10.491Z,7.47
2023-03-21T03:32:09.444Z,7.54
2023-03-21T03:33:09.342Z,7.54
2023-03-21T03:34:09.400Z,7.53
2023-03-21T03:35:09.352Z,7.53
2023-03-21T03:36:10.971Z,7.54
2023-03-21T03:37:09.341Z,7.57
2023-03-21T03:38:09.316Z,7.60
2023-03-21T03:39:09.269Z,7.63
2023-03-21T03:40:09.278Z,7.61
2023-03-21T03:41:09.250Z,7.67
2023-03-21T03:42:25.305Z,7.70
2023-03-21T03:43:10.311Z,7.72
2023-03-21T03:44:09.214Z,7.58
2023-03-21T03:45:09.231Z,7.48
2023-03-21T03:46:09.234Z,7.39
2023-03-21T03:47:11.801Z,7.31
2023-03-21T03:48:09.205Z,7.23
2023-03-21T03:49:09.165Z,7.15
2023-03-21T03:50:09.145Z,7.10
2023-03-21T03:51:09.154Z,7.05
2023-03-21T03:52:09.133Z,7.11
2023-03-21T03:53:17.674Z,7.15
2023-03-21T03:54:10.104Z,7.18
2023-03-21T03:55:09.093Z,7.23
2023-03-21T03:56:09.109Z,7.25
2023-03-21T03:57:09.094Z,7.29
2023-03-21T03:58:21.333Z,7.32
2023-03-21T03:59:10.082Z,7.33
2023-03-21T04:00:09.008Z,7.36
2023-03-21T04:01:09.011Z,7.42
2023-03-21T04:02:09.004Z,7.40
2023-03-21T04:03:09.108Z,7.35
2023-03-21T04:04:13.229Z,7.29
2023-03-21T04:05:08.993Z,7.29
2023-03-21T04:06:08.929Z,7.32
2023-03-21T04:07:08.930Z,7.38
2023-03-21T04:08:08.905Z,7.42
2023-03-21T04:09:19.054Z,7.39
2023-03-21T04:10:09.909Z,7.36
2023-03-21T04:11:08.908Z,7.32
2023-03-21T04:12:08.862Z,7.25
2023-03-21T04:13:08.895Z,7.15
2023-03-21T04:14:08.835Z,7.10
2023-03-21T04:15:10.919Z,7.07
2023-03-21T04:16:08.882Z,7.06
2023-03-21T04:17:08.813Z,7.06
2023-03-21T04:18:08.786Z,7.07
2023-03-21T04:19:08.794Z,7.07
2023-03-21T04:20:13.949Z,7.11
2023-03-21T04:21:09.793Z,7.11
2023-03-21T04:22:08.749Z,7.13
2023-03-21T04:23:08.752Z,7.13
2023-03-21T04:24:08.702Z,7.14
2023-03-21T04:25:08.732Z,7.20
2023-03-21T04:26:08.689Z,7.24
2023-03-21T04:27:08.690Z,7.25
2023-03-21T04:28:08.683Z,7.31
2023-03-21T04:29:08.672Z,7.35
2023-03-21T04:30:08.628Z,7.39
2023-03-21T04:31:25.085Z,7.42
2023-03-21T04:32:09.653Z,7.43
2023-03-21T04:33:10.393Z,7.47
2023-03-21T04:34:08.675Z,7.47
2023-03-21T04:35:08.593Z,7.50
2023-03-21T04:36:08.655Z,7.48
2023-03-21T04:37:08.580Z,7.48
2023-03-21T04:38:08.519Z,7.50
2023-03-21T04:39:08.608Z,7.48
2023-03-21T04:40:08.529Z,7.42
2023-03-21T04:41:08.516Z,7.32
2023-03-21T04:42:08.475Z,7.31
2023-03-21T04:43:09.445Z,7.31
2023-03-21T04:44:08.632Z,7.33
2023-03-21T04:45:08.444Z,7.36
2023-03-21T04:46:08.426Z,7.36
2023-03-21T04:47:08.429Z,7.38
2023-03-21T04:48:08.483Z,7.40
2023-03-21T04:49:08.438Z,7.43
2023-03-21T04:50:08.382Z,7.45
2023-03-21T04:51:09.238Z,7.47
2023-03-21T04:52:08.366Z,7.51
2023-03-21T04:53:08.499Z,7.56
2023-03-21T04:54:43.848Z,7.60
2023-03-21T04:55:43.846Z,7.58
2023-03-21T04:56:43.835Z,7.53
2023-03-21T04:57:43.852Z,7.48
2023-03-21T04:58:43.735Z,7.45
2023-03-21T04:59:43.801Z,7.43
2023-03-21T05:00:43.829Z,7.42
2023-03-21T05:01:43.889Z,7.42
2023-03-21T05:02:43.728Z,7.42
2023-03-21T05:03:43.804Z,7.48
2023-03-21T05:04:43.709Z,7.54
2023-03-21T05:05:43.680Z,7.56
2023-03-21T05:06:43.687Z,7.60
2023-03-21T05:07:43.677Z,7.63
2023-03-21T05:08:50.700Z,7.67
2023-03-21T05:09:43.612Z,7.69
2023-03-21T05:10:43.580Z,7.70
2023-03-21T05:11:43.579Z,7.73
2023-03-21T05:12:43.549Z,7.75
2023-03-21T05:13:43.562Z,7.79
2023-03-21T05:14:43.550Z,7.80
2023-03-21T05:15:43.545Z,7.83
2023-03-21T05:16:43.536Z,7.80
2023-03-21T05:17:43.531Z,7.82
2023-03-21T05:18:43.482Z,7.79
2023-03-21T05:19:43.468Z,7.76
2023-03-21T05:20:43.495Z,7.79
2023-03-21T05:21:43.519Z,7.79
2023-03-21T05:22:43.425Z,7.70
2023-03-21T05:23:43.434Z,7.69
2023-03-21T05:24:43.419Z,7.70
2023-03-21T05:25:43.408Z,7.70
2023-03-21T05:26:43.394Z,7.73
2023-03-21T05:27:43.379Z,7.76
2023-03-21T05:28:43.344Z,7.77
2023-03-21T05:29:43.365Z,7.79
2023-03-21T05:30:43.350Z,7.83
2023-03-21T05:31:43.311Z,7.79
2023-03-21T05:32:43.327Z,7.72
2023-03-21T05:33:43.287Z,7.69
2023-03-21T05:34:43.256Z,7.61
2023-03-21T05:35:43.290Z,7.58
2023-03-21T05:36:43.236Z,7.56
2023-03-21T05:37:43.268Z,7.58
2023-03-21T05:38:43.205Z,7.63
2023-03-21T05:39:43.228Z,7.66
2023-03-21T05:40:43.190Z,7.66
2023-03-21T05:41:43.224Z,7.70
2023-03-21T05:42:43.155Z,7.73
2023-03-21T05:43:43.176Z,7.76
2023-03-21T05:44:43.140Z,7.75
2023-03-21T05:45:43.112Z,7.73
2023-03-21T05:46:43.126Z,7.75
2023-03-21T05:47:43.107Z,7.70
2023-03-21T05:48:43.109Z,7.63
2023-03-21T05:49:43.094Z,7.61
2023-03-21T05:50:43.090Z,7.56
2023-03-21T05:51:43.041Z,7.53
2023-03-21T05:52:43.052Z,7.50
2023-03-21T05:53:43.088Z,7.54
2023-03-21T05:54:43.074Z,7.54
2023-03-21T05:55:42.990Z,7.58
2023-03-21T05:56:43.008Z,7.57
2023-03-21T05:57:42.982Z,7.54
2023-03-21T05:58:42.990Z,7.54
2023-03-21T05:59:42.948Z,7.56
2023-03-21T06:00:42.976Z,7.60
2023-03-21T06:01:42.915Z,7.63
2023-03-21T06:02:42.955Z,7.70
2023-03-21T06:03:43.052Z,7.79
2023-03-21T06:04:42.926Z,7.85
2023-03-21T06:05:42.857Z,7.93
2023-03-21T06:06:42.904Z,7.95
2023-03-21T06:07:42.824Z,7.94
2023-03-21T06:08:42.835Z,7.94
2023-03-21T06:09:42.815Z,7.93
2023-03-21T06:10:42.843Z,7.87
2023-03-21T06:11:42.775Z,7.82
2023-03-21T06:12:42.831Z,7.79
2023-03-21T06:13:42.831Z,7.77
2023-03-21T06:14:42.769Z,7.79
2023-03-21T06:15:42.773Z,7.82
2023-03-21T06:16:42.770Z,7.83
2023-03-21T06:17:42.703Z,7.87
2023-03-21T06:18:42.741Z,7.90
2023-03-21T06:19:42.701Z,7.88
2023-03-21T06:20:42.699Z,7.85
2023-03-21T06:21:42.690Z,7.87
2023-03-21T06:22:42.677Z,7.85
2023-03-21T06:23:42.643Z,7.87
2023-03-21T06:24:42.670Z,7.88
2023-03-21T06:25:42.620Z,7.87
2023-03-21T06:26:42.629Z,7.87
2023-03-21T06:27:42.616Z,7.93
2023-03-21T06:28:42.585Z,7.97
2023-03-21T06:29:42.563Z,8.06
2023-03-21T06:30:42.564Z,8.12
2023-03-21T06:31:42.600Z,8.15
2023-03-21T06:32:42.542Z,8.23
2023-03-21T06:33:42.550Z,8.27
2023-03-21T06:34:42.510Z,8.28
2023-03-21T06:35:42.524Z,8.34
2023-03-21T06:36:42.478Z,8.37
2023-03-21T06:37:42.470Z,8.42
2023-03-21T06:38:42.465Z,8.46
2023-03-21T06:39:42.421Z,8.44
2023-03-21T06:40:42.432Z,8.41
2023-03-21T06:41:42.399Z,8.37
2023-03-21T06:42:42.414Z,8.41
2023-03-21T06:43:42.392Z,8.42
2023-03-21T06:44:42.424Z,8.44
2023-03-21T06:45:42.378Z,8.44
2023-03-21T06:46:42.364Z,8.46
2023-03-21T06:47:42.481Z,8.48
2023-03-21T06:48:42.353Z,8.49
2023-03-21T06:49:42.302Z,8.48
2023-03-21T06:50:42.290Z,8.51
2023-03-21T06:51:42.261Z,8.53
2023-03-21T06:52:42.287Z,8.48
2023-03-21T06:53:42.240Z,8.48
2023-03-21T06:54:42.296Z,8.49
2023-03-21T06:55:42.212Z,8.51
2023-03-21T06:56:42.245Z,8.55
2023-03-21T06:57:42.193Z,8.55
2023-03-21T06:58:42.241Z,8.60
2023-03-21T06:59:42.167Z,8.61
2023-03-21T07:00:42.291Z,8.63
2023-03-21T07:01:42.158Z,8.63
2023-03-21T07:02:42.223Z,8.64
2023-03-21T07:03:42.107Z,8.64
2023-03-21T07:04:42.146Z,8.67
2023-03-21T07:05:42.077Z,8.67
2023-03-21T07:06:42.204Z,8.71
2023-03-21T07:07:42.055Z,8.76
2023-03-21T07:08:42.069Z,8.76
2023-03-21T07:09:42.048Z,8.76
2023-03-21T07:10:44.287Z,8.73
2023-03-21T07:11:42.013Z,8.74
2023-03-21T07:12:42.058Z,8.78
2023-03-21T07:13:42.018Z,8.82
2023-03-21T07:14:42.045Z,8.84
2023-03-21T07:15:41.967Z,8.88
2023-03-21T07:16:42.012Z,8.88
2023-03-21T07:17:41.965Z,8.95
2023-03-21T07:18:41.946Z,9.06
2023-03-21T07:19:43.862Z,9.13
2023-03-21T07:20:41.912Z,9.19
2023-03-21T07:21:41.890Z,9.28
2023-03-21T07:22:41.947Z,9.31
2023-03-21T07:23:41.858Z,9.32
2023-03-21T07:24:41.858Z,9.41
2023-03-21T07:25:42.091Z,9.40
2023-03-21T07:26:41.847Z,9.39
2023-03-21T07:27:41.801Z,9.29
2023-03-21T07:28:41.836Z,9.26
2023-03-21T07:29:41.800Z,9.25
2023-03-21T07:30:41.798Z,9.22
2023-03-21T07:31:41.869Z,9.26
2023-03-21T07:32:41.773Z,9.31
2023-03-21T07:33:41.757Z,9.32
2023-03-21T07:34:41.751Z,9.36
2023-03-21T07:35:41.903Z,9.39
2023-03-21T07:36:41.713Z,9.40
2023-03-21T07:37:42.402Z,9.48
2023-03-21T07:38:41.730Z,9.55
2023-03-21T07:39:41.687Z,9.62
2023-03-21T07:40:41.658Z,9.65
2023-03-21T07:41:41.610Z,9.69
2023-03-21T07:42:41.822Z,9.72
2023-03-21T07:43:41.599Z,9.74
2023-03-21T07:44:41.681Z,9.80
2023-03-21T07:45:41.937Z,9.86
2023-03-21T07:46:41.576Z,9.94
2023-03-21T07:47:42.541Z,9.98
2023-03-21T07:48:41.562Z,10.07
2023-03-21T07:49:41.517Z,10.12
2023-03-21T07:50:41.566Z,10.04
2023-03-21T07:51:41.589Z,9.98
2023-03-21T07:52:41.532Z,9.99
2023-03-21T07:53:45.360Z,9.95
2023-03-21T07:54:41.514Z,9.99
2023-03-21T07:55:41.444Z,10.04
2023-03-21T07:56:41.709Z,10.07
2023-03-21T07:57:41.440Z,9.95
2023-03-21T07:58:41.486Z,9.83
2023-03-21T07:59:41.396Z,9.79
2023-03-21T08:00:41.450Z,9.83
2023-03-21T08:01:41.377Z,9.92
2023-03-21T08:02:41.613Z,9.95
2023-03-21T08:03:41.416Z,9.99
2023-03-21T08:04:41.352Z,10.02
2023-03-21T08:05:41.946Z,10.07
2023-03-21T08:06:41.316Z,10.13
2023-03-21T08:07:41.314Z,10.15
2023-03-21T08:08:41.397Z,10.10
2023-03-21T08:09:41.255Z,10.12
2023-03-21T08:10:41.378Z,10.15
2023-03-21T08:11:41.240Z,10.17
2023-03-21T08:12:41.229Z,10.15
2023-03-21T08:13:41.265Z,10.15
2023-03-21T08:14:41.212Z,10.20
2023-03-21T08:15:41.211Z,10.23
2023-03-21T08:16:41.228Z,10.26
2023-03-21T08:17:41.163Z,10.23
2023-03-21T08:18:41.212Z,10.22
2023-03-21T08:19:41.134Z,10.19
2023-03-21T08:20:41.141Z,10.15
2023-03-21T08:21:41.088Z,10.15
2023-03-21T08:22:41.110Z,10.13
2023-03-21T08:23:41.130Z,10.13
2023-03-21T08:24:41.110Z,10.13
2023-03-21T08:25:41.046Z,10.17
2023-03-21T08:26:41.098Z,10.16
2023-03-21T08:27:41.025Z,10.16
2023-03-21T08:28:41.037Z,10.16
2023-03-21T08:29:40.979Z,10.13
2023-03-21T08:30:41.024Z,10.13
2023-03-21T08:31:40.979Z,10.13
2023-03-21T08:32:40.967Z,10.13
2023-03-21T08:33:40.945Z,10.13
2023-03-21T08:34:40.952Z,10.13
2023-03-21T08:35:41.556Z,10.16
2023-03-21T08:36:40.933Z,10.17
2023-03-21T08:37:40.917Z,10.12
2023-03-21T08:38:40.883Z,10.05
2023-03-21T08:39:41.661Z,9.99
2023-03-21T08:40:40.881Z,10.01
2023-03-21T08:41:40.853Z,10.05
2023-03-21T08:42:40.837Z,10.13
2023-03-21T08:43:40.804Z,10.16
2023-03-21T08:44:40.824Z,10.26
2023-03-21T08:45:40.802Z,10.31
2023-03-21T08:46:40.895Z,10.35
2023-03-21T08:47:40.869Z,10.40
2023-03-21T08:48:40.780Z,10.44
2023-03-21T08:49:40.749Z,10.44
2023-03-21T08:50:40.735Z,10.42
2023-03-21T08:51:40.728Z,10.44
2023-03-21T08:52:40.745Z,10.51
2023-03-21T08:53:40.700Z,10.59
2023-03-21T08:54:40.710Z,10.61
2023-03-21T08:55:40.665Z,10.64
2023-03-21T08:56:40.651Z,10.64
2023-03-21T08:57:40.645Z,10.63
2023-03-21T08:58:40.656Z,10.68
2023-03-21T08:59:41.355Z,10.72
2023-03-21T09:00:40.638Z,10.76
2023-03-21T09:01:40.652Z,10.82
2023-03-21T09:02:41.540Z,10.87
2023-03-21T09:03:40.580Z,10.92
2023-03-21T09:04:40.774Z,10.93
2023-03-21T09:05:41.274Z,10.97
2023-03-21T09:06:41.461Z,11.00
2023-03-21T09:07:40.574Z,11.05
2023-03-21T09:08:40.905Z,11.05
2023-03-21T09:09:40.482Z,11.05
2023-03-21T09:10:40.529Z,11.08
2023-03-21T09:11:40.438Z,11.10
2023-03-21T09:12:40.788Z,11.12
2023-03-21T09:13:41.029Z,11.15
2023-03-21T09:14:40.787Z,11.17
2023-03-21T09:15:41.114Z,11.22
2023-03-21T09:16:41.203Z,11.23
2023-03-21T09:17:41.167Z,11.29
2023-03-21T09:18:40.879Z,11.29
2023-03-21T09:19:40.424Z,11.33
2023-03-21T09:20:40.636Z,11.35
2023-03-21T09:21:40.374Z,11.30
2023-03-21T09:22:42.779Z,11.32
2023-03-21T09:23:40.352Z,11.35
2023-03-21T09:24:40.334Z,11.36
2023-03-21T09:25:41.237Z,11.41
2023-03-21T09:26:40.501Z,11.44
2023-03-21T09:27:41.676Z,11.45
2023-03-21T09:28:40.278Z,11.47
2023-03-21T09:29:40.249Z,11.50
2023-03-21T09:30:41.148Z,11.57
2023-03-21T09:31:40.317Z,11.65
2023-03-21T09:32:41.136Z,11.68
2023-03-21T09:33:40.270Z,11.70
2023-03-21T09:34:40.174Z,11.72
2023-03-21T09:35:40.734Z,11.73
2023-03-21T09:36:40.171Z,11.77
2023-03-21T09:37:40.936Z,11.77
2023-03-21T09:38:40.105Z,11.81
2023-03-21T09:39:40.075Z,11.86
2023-03-21T09:40:40.125Z,11.90
2023-03-21T09:41:40.105Z,11.95
2023-03-21T09:42:40.092Z,11.97
2023-03-21T09:43:40.410Z,12.04
2023-03-21T09:44:40.054Z,12.07
2023-03-21T09:45:40.472Z,12.15
2023-03-21T09:46:40.055Z,12.22
2023-03-21T09:47:40.037Z,12.29
2023-03-21T09:48:50.627Z,12.36
2023-03-21T09:49:40.941Z,12.46
2023-03-21T09:50:39.957Z,12.47
2023-03-21T09:51:40.002Z,12.57
2023-03-21T09:52:39.950Z,12.68
2023-03-21T09:53:39.900Z,12.75
2023-03-21T09:54:39.970Z,12.85
2023-03-21T09:55:40.264Z,12.90
2023-03-21T09:56:40.595Z,12.98
2023-03-21T09:57:39.889Z,13.04
2023-03-21T09:58:39.929Z,13.11
2023-03-21T09:59:39.816Z,13.18
2023-03-21T10:00:40.084Z,13.23
2023-03-21T10:01:39.875Z,13.28
2023-03-21T10:02:39.802Z,13.42
2023-03-21T10:03:39.783Z,13.47
2023-03-21T10:04:39.949Z,13.50
2023-03-21T10:05:40.222Z,13.54
2023-03-21T10:06:39.825Z,13.53
2023-03-21T10:07:39.722Z,13.53
2023-03-21T10:08:39.731Z,13.54
2023-03-21T10:09:39.701Z,13.50
2023-03-21T10:10:40.138Z,13.50
2023-03-21T10:11:39.702Z,13.47
2023-03-21T10:12:39.778Z,13.46
2023-03-21T10:13:39.699Z,13.46
2023-03-21T10:14:44.023Z,13.50
2023-03-21T10:15:40.942Z,13.54
2023-03-21T10:16:39.650Z,13.54
2023-03-21T10:17:39.688Z,13.53
2023-03-21T10:18:39.626Z,13.49
2023-03-21T10:19:39.843Z,13.52
2023-03-21T10:20:39.674Z,13.59
2023-03-21T10:22:40.536Z,13.53
2023-03-21T10:23:39.555Z,13.49
2023-03-21T10:24:39.563Z,13.52
2023-03-21T10:25:39.810Z,13.50
2023-03-21T10:26:39.495Z,13.49
2023-03-21T10:27:39.450Z,13.47
2023-03-21T10:28:52.403Z,13.49
2023-03-21T10:29:40.516Z,13.56
2023-03-21T10:30:39.413Z,13.63
2023-03-21T10:31:39.447Z,13.70
2023-03-21T10:32:39.471Z,13.75
2023-03-21T10:33:39.505Z,13.83
2023-03-21T10:34:39.375Z,13.92
2023-03-21T10:35:39.914Z,13.99
2023-03-21T10:36:39.377Z,13.97
2023-03-21T10:37:39.343Z,13.90
2023-03-21T10:38:39.385Z,13.79
2023-03-21T10:39:39.322Z,13.87
2023-03-21T10:40:39.294Z,13.93
2023-03-21T10:41:39.667Z,13.97
2023-03-21T10:42:39.475Z,14.03
2023-03-21T10:43:39.272Z,13.96
2023-03-21T10:44:39.240Z,13.97
2023-03-21T10:45:39.600Z,13.97
2023-03-21T10:46:39.539Z,13.92
2023-03-21T10:47:39.935Z,13.78
2023-03-21T10:48:39.365Z,13.78
2023-03-21T10:50:13.059Z,13.79
2023-03-21T10:50:40.217Z,13.83
2023-03-21T10:51:39.179Z,13.89
2023-03-21T10:52:39.122Z,13.85
2023-03-21T10:53:39.154Z,13.83
2023-03-21T10:54:39.101Z,13.85
2023-03-21T10:55:39.358Z,13.79
2023-03-21T10:56:39.376Z,13.78
2023-03-21T10:57:39.100Z,13.85
2023-03-21T10:58:39.067Z,13.86
2023-03-21T10:59:39.079Z,13.92
2023-03-21T11:00:39.019Z,13.96
2023-03-21T11:01:39.135Z,14.03
2023-03-21T11:02:39.023Z,14.00
2023-03-21T11:03:39.197Z,13.99
2023-03-21T11:04:38.965Z,14.00
2023-03-21T11:05:39.218Z,14.05
2023-03-21T11:06:38.937Z,14.10
2023-03-21T11:07:38.933Z,14.05
2023-03-21T11:08:39.333Z,13.99
2023-03-21T11:09:45.981Z,14.05
2023-03-21T11:10:40.673Z,14.05
2023-03-21T11:11:38.970Z,14.12
2023-03-21T11:12:38.853Z,14.17
2023-03-21T11:13:38.940Z,14.20
2023-03-21T11:14:39.050Z,14.22
2023-03-21T11:15:39.282Z,14.18
2023-03-21T11:16:39.837Z,14.18
2023-03-21T11:17:38.828Z,14.18
2023-03-21T11:18:38.762Z,14.22
2023-03-21T11:19:38.821Z,14.18
2023-03-21T11:20:38.794Z,14.20
2023-03-21T11:21:38.804Z,14.22
2023-03-21T11:22:38.712Z,14.25
2023-03-21T11:23:38.747Z,14.33
2023-03-21T11:24:38.714Z,14.40
2023-03-21T11:25:39.014Z,14.35
2023-03-21T11:26:38.671Z,14.29
2023-03-21T11:27:38.695Z,14.25
2023-03-21T11:28:38.648Z,14.29
2023-03-21T11:29:38.759Z,14.29
2023-03-21T11:30:38.660Z,14.33
2023-03-21T11:31:38.638Z,14.32
2023-03-21T11:32:38.614Z,14.30
2023-03-21T11:33:38.782Z,14.33
2023-03-21T11:34:39.787Z,14.32
2023-03-21T11:35:39.030Z,14.30
2023-03-21T11:36:38.537Z,14.36
2023-03-21T11:37:38.567Z,14.37
2023-03-21T11:38:38.512Z,14.41
2023-03-21T11:39:38.542Z,14.48
2023-03-21T11:40:38.498Z,14.53
2023-03-21T11:41:38.516Z,14.50
2023-03-21T11:42:38.477Z,14.43
2023-03-21T11:43:38.598Z,14.41
2023-03-21T11:44:38.434Z,14.37
2023-03-21T11:45:38.971Z,14.41
2023-03-21T11:46:38.447Z,14.37
2023-03-21T11:47:38.622Z,14.44
2023-03-21T11:48:38.406Z,14.50
2023-03-21T11:49:38.401Z,14.53
2023-03-21T11:50:38.387Z,14.54
2023-03-21T11:51:38.401Z,14.55
2023-03-21T11:52:38.369Z,14.47
2023-03-21T11:53:38.358Z,14.40
2023-03-21T11:54:38.318Z,14.44
2023-03-21T11:55:38.828Z,14.43
2023-03-21T11:56:38.331Z,14.41
2023-03-21T11:57:38.349Z,14.40
2023-03-21T11:58:38.536Z,14.45
2023-03-21T11:59:38.340Z,14.55
2023-03-21T12:00:38.255Z,14.59
2023-03-21T12:01:38.257Z,14.66
2023-03-21T12:02:38.309Z,14.72
2023-03-21T12:03:47.108Z,14.78
2023-03-21T12:04:39.249Z,14.72
2023-03-21T12:05:39.224Z,14.69
2023-03-21T12:06:38.147Z,14.72
2023-03-21T12:07:38.183Z,14.65
2023-03-21T12:08:38.165Z,14.65
2023-03-21T12:09:38.207Z,14.69
2023-03-21T12:10:38.134Z,14.70
2023-03-21T12:11:38.149Z,14.77
2023-03-21T12:12:39.487Z,14.78
2023-03-21T12:13:38.081Z,14.73
2023-03-21T12:14:38.040Z,14.78
2023-03-21T12:15:38.491Z,14.79
2023-03-21T12:16:38.130Z,14.82
2023-03-21T12:17:38.061Z,14.82
2023-03-21T12:18:38.033Z,14.88
2023-03-21T12:19:38.086Z,14.89
2023-03-21T12:20:38.841Z,14.79
2023-03-21T12:21:38.017Z,14.69
2023-03-21T12:22:37.941Z,14.78
2023-03-21T12:23:38.035Z,14.84
2023-03-21T12:24:37.929Z,14.89
2023-03-21T12:25:38.219Z,15.00
2023-03-21T12:26:37.897Z,15.03
2023-03-21T12:27:37.936Z,15.07
2023-03-21T12:28:37.855Z,15.11
2023-03-21T12:29:37.905Z,15.14
2023-03-21T12:30:37.884Z,15.18
2023-03-21T12:31:37.965Z,15.22
2023-03-21T12:32:37.848Z,15.22
2023-03-21T12:33:37.835Z,15.22
2023-03-21T12:34:37.904Z,15.28
2023-03-21T12:35:38.187Z,15.31
2023-03-21T12:36:37.777Z,15.33
2023-03-21T12:37:37.777Z,15.39
2023-03-21T12:38:37.768Z,15.40
2023-03-21T12:39:37.749Z,15.47
2023-03-21T12:40:37.697Z,15.55
2023-03-21T12:41:37.703Z,15.57
2023-03-21T12:42:37.689Z,15.51
2023-03-21T12:43:37.713Z,15.46
2023-03-21T12:44:37.642Z,15.46
2023-03-21T12:45:46.682Z,15.44
2023-03-21T12:46:38.736Z,15.47
2023-03-21T12:47:37.634Z,15.55
2023-03-21T12:48:37.607Z,15.58
2023-03-21T12:49:38.446Z,15.61
2023-03-21T12:50:37.614Z,15.65
2023-03-21T12:51:37.582Z,15.65
2023-03-21T12:52:37.539Z,15.70
2023-03-21T12:53:37.549Z,15.73
2023-03-21T12:54:37.510Z,15.76
2023-03-21T12:55:38.054Z,15.75
2023-03-21T12:56:37.511Z,15.72
2023-03-21T12:57:40.209Z,15.67
2023-03-21T12:58:37.455Z,15.70
2023-03-21T12:59:37.491Z,15.65
2023-03-21T13:00:37.919Z,15.57
2023-03-21T13:01:39.635Z,15.55
2023-03-21T13:02:37.398Z,15.54
2023-03-21T13:03:43.220Z,15.52
2023-03-21T13:04:38.426Z,15.61
2023-03-21T13:05:37.385Z,15.64
2023-03-21T13:06:38.072Z,15.65
2023-03-21T13:07:37.446Z,15.67
2023-03-21T13:08:37.369Z,15.73
2023-03-21T13:09:38.330Z,15.75
2023-03-21T13:10:37.679Z,15.75
2023-03-21T13:11:38.109Z,15.79